DAUB

Biskra Airport

Biskra, Algeria
TAF DAUB 132300Z 1400/1424 13014KT FEW020 BKN100 PROB40 TEMPO 1400/1412 5000 -TSRA FEW030CB BKN030 BECMG 1410/1412 32019KT TEMPO 1412/1424 34020G45KT FEW026CB PROB40 TEMPO 1412/1419 5000 RA BKN030 PROB40 TEMPO 1415/1424 2000 DRSA NSC
Issued Valid From Valid To
Dec-13 @ 23:00 UTC
(4 hours ago)
Dec-14 @ 00:00 UTC
(3 hours ago)
Dec-15 @ 00:00 UTC
(in 21 hours)
Dec-14 @ 00:00 to Dec-14 @ 10:00
TAF DAUB 132300Z 1400/1424 13014KT FEW020 BKN100
Wind Clouds
130° at 14 knots
  • Few at 2,000' AGL
  • Broken at 10,000' AGL
Temporary  (Probability 40%) Dec-14 @ 00:00 to Dec-14 @ 12:00
PROB40 TEMPO 1400/1412 5000 -TSRA FEW030CB BKN030
Visibility Clouds Conditions
5,005 meters
  • Few at 3,000' AGL
  • Broken at 3,000' AGL
  • Light Thunderstorm
  • Light Rain
Becoming Dec-14 @ 10:00 to Dec-15 @ 00:00
BECMG 1410/1412 32019KT
Wind Clouds
320° at 19 knots
  • Few at 2,000' AGL
  • Broken at 10,000' AGL
Temporary  (Probability 40%) Dec-14 @ 12:00 to Dec-14 @ 19:00
PROB40 TEMPO 1412/1419 5000 RA BKN030
Visibility Clouds Conditions
5,005 meters
  • Broken at 3,000' AGL
  • Rain
Temporary Dec-14 @ 12:00 to Dec-15 @ 00:00
TEMPO 1412/1424 34020G45KT FEW026CB
Wind Clouds
340° at 20 knots
 Gusting to 45 knots
  • Few at 2,600' AGL
Temporary  (Probability 40%) Dec-14 @ 15:00 to Dec-15 @ 00:00
PROB40 TEMPO 1415/1424 2000 DRSA NSC
Visibility Clouds Conditions
1,996 meters
  • No significant clouds
  • Low drifting
  • Sand
TAF DAUB 132300Z 1400/1424 13014KT FEW020 BKN100 PROB40 TEMPO 1400/1412 5000 -TSRA FEW030CB BKN030 BECMG 1410/1412 32019KT TEMPO 1412/1424 34020G45KT FEW026CB PROB40 TEMPO 1412/1419 5000 RA BKN030 PROB40 TEMPO 1415/1424 2000 DRSA NSC
Issued Dec-13 @ 23:00 UTC
(4 hours ago)
Valid From Dec-14 @ 00:00 UTC
(3 hours ago)
Valid To Dec-15 @ 00:00 UTC
(in 21 hours)
Dec-14 @ 00:00 - Dec-14 @ 10:00
Wind
130° at 14 knots
Clouds
  • Few at 2,000' AGL
  • Broken at 10,000' AGL
Probability 40% Temporary Dec-14 @ 00:00 - Dec-14 @ 12:00
Clouds
  • Few at 3,000' AGL
  • Broken at 3,000' AGL
Conditions
  • Light Thunderstorm
  • Light Rain
Becoming Dec-14 @ 10:00 - Dec-15 @ 00:00
Wind
320° at 19 knots
Clouds
  • Few at 2,000' AGL
  • Broken at 10,000' AGL
Probability 40% Temporary Dec-14 @ 12:00 - Dec-14 @ 19:00
Clouds
  • Broken at 3,000' AGL
Conditions
  • Rain
Temporary Dec-14 @ 12:00 - Dec-15 @ 00:00
Wind
340° at 20 knots
 Gusting to 45 knots
Clouds
  • Few at 2,600' AGL
Probability 40% Temporary Dec-14 @ 15:00 - Dec-15 @ 00:00
Clouds
  • No significant clouds
Conditions
  • Low drifting
  • Sand